KRMG 231953Z AUTO 00000KT 10SM FEW070 34/15 A3000 RMK AO2 SLP150 T03390150